createdAt,value
2023-01-01T00:01:48.540Z,10.40
2023-01-01T00:04:17.409Z,11.00
2023-01-01T00:06:46.752Z,10.60
2023-01-01T00:09:36.040Z,7.70
2023-01-01T00:12:05.586Z,7.40
2023-01-01T00:14:34.799Z,7.40
2023-01-01T00:17:04.012Z,8.20
2023-01-01T00:19:33.821Z,10.50
2023-01-01T00:22:27.984Z,6.40
2023-01-01T00:24:53.628Z,7.20
2023-01-01T00:27:26.609Z,6.70
2023-01-01T00:29:55.931Z,6.00
2023-01-01T00:32:25.482Z,8.00
2023-01-01T00:34:54.314Z,7.70
2023-01-01T00:37:23.422Z,6.90
2023-01-01T00:39:56.214Z,7.50
2023-01-01T00:42:27.287Z,8.60
2023-01-01T00:44:57.764Z,8.50
2023-01-01T00:47:32.348Z,8.80
2023-01-01T00:50:01.284Z,11.10
2023-01-01T00:52:32.032Z,9.10
2023-01-01T00:55:01.705Z,7.60
2023-01-01T00:57:33.010Z,6.90
2023-01-01T01:00:05.953Z,6.40
2023-01-01T01:02:36.192Z,9.30
2023-01-01T01:05:06.474Z,5.00
2023-01-01T01:07:45.016Z,7.30
2023-01-01T01:12:46.922Z,5.70
2023-01-01T01:15:19.578Z,5.80
2023-01-01T01:17:48.732Z,5.20
2023-01-01T01:20:19.749Z,5.70
2023-01-01T01:22:48.787Z,4.20
2023-01-01T01:25:17.568Z,5.40
2023-01-01T01:27:51.946Z,7.30
2023-01-01T01:30:21.339Z,6.00
2023-01-01T01:32:50.067Z,7.50
2023-01-01T01:35:18.803Z,6.90
2023-01-01T01:37:48.835Z,5.30
2023-01-01T01:40:19.004Z,4.90
2023-01-01T01:42:49.206Z,5.10
2023-01-01T01:45:19.215Z,5.40
2023-01-01T01:47:48.079Z,4.90
2023-01-01T01:50:41.222Z,5.90
2023-01-01T01:53:27.906Z,4.60
2023-01-01T01:56:01.031Z,6.00
2023-01-01T01:58:32.377Z,4.90
2023-01-01T02:01:01.514Z,5.70
2023-01-01T02:03:43.795Z,5.60
2023-01-01T02:06:13.747Z,4.60
2023-01-01T02:08:42.827Z,5.90
2023-01-01T02:11:11.836Z,4.90
2023-01-01T02:13:40.734Z,5.20
2023-01-01T02:16:56.070Z,5.60
2023-01-01T02:19:46.266Z,5.70
2023-01-01T02:24:54.987Z,8.60
2023-01-01T02:28:12.628Z,5.30
2023-01-01T02:30:46.122Z,6.50
2023-01-01T02:33:20.803Z,5.90
2023-01-01T02:35:56.468Z,5.60
2023-01-01T02:38:37.284Z,8.60
2023-01-01T02:41:11.347Z,6.90
2023-01-01T02:43:42.253Z,6.80
2023-01-01T02:48:45.117Z,9.00
2023-01-01T02:51:43.438Z,8.30
2023-01-01T02:54:51.009Z,8.10
2023-01-01T02:58:31.259Z,7.10
2023-01-01T03:01:10.794Z,8.70
2023-01-01T03:04:01.780Z,8.70
2023-01-01T03:06:43.482Z,9.90
2023-01-01T03:09:43.964Z,7.00
2023-01-01T03:12:40.026Z,8.30
2023-01-01T03:15:27.917Z,7.60
2023-01-01T03:18:09.254Z,6.90
2023-01-01T03:20:42.908Z,8.00
2023-01-01T03:23:18.143Z,6.90
2023-01-01T03:25:52.421Z,7.50
2023-01-01T03:28:34.310Z,10.00
2023-01-01T03:31:04.185Z,7.50
2023-01-01T03:33:39.361Z,6.40
2023-01-01T03:36:15.524Z,7.00
2023-01-01T03:38:48.129Z,9.30
2023-01-01T03:41:27.450Z,8.10
2023-01-01T03:44:09.136Z,8.80
2023-01-01T03:46:38.578Z,8.20
2023-01-01T03:49:10.739Z,7.70
2023-01-01T03:51:40.133Z,11.70
2023-01-01T03:54:24.873Z,8.70
2023-01-01T03:57:03.959Z,7.60
2023-01-01T03:59:44.481Z,5.80
2023-01-01T04:02:19.356Z,7.60
2023-01-01T04:04:49.843Z,7.90
2023-01-01T04:09:52.443Z,8.70
2023-01-01T04:12:21.995Z,7.90
2023-01-01T04:14:50.674Z,7.30
2023-01-01T04:17:19.267Z,9.20
2023-01-01T04:19:54.699Z,14.20
2023-01-01T04:22:24.002Z,13.10
2023-01-01T04:24:54.041Z,14.50
2023-01-01T04:27:22.957Z,12.80
2023-01-01T04:29:51.622Z,9.70
2023-01-01T04:32:20.814Z,13.80
2023-01-01T04:34:49.513Z,21.00
2023-01-01T04:37:18.176Z,15.30
2023-01-01T04:39:47.042Z,36.10
2023-01-01T04:42:18.353Z,26.50
2023-01-01T04:44:48.581Z,19.50
2023-01-01T04:47:17.469Z,21.90
2023-01-01T04:49:46.226Z,15.70
2023-01-01T04:52:15.530Z,23.60
2023-01-01T04:54:44.510Z,14.00
2023-01-01T04:57:14.187Z,12.60
2023-01-01T04:59:43.255Z,15.20
2023-01-01T05:02:12.105Z,23.30
2023-01-01T05:04:41.984Z,11.60
2023-01-01T05:07:11.552Z,12.60
2023-01-01T05:09:43.428Z,11.70
2023-01-01T05:12:13.557Z,14.20
2023-01-01T05:14:44.664Z,19.60
2023-01-01T05:17:15.125Z,19.10
2023-01-01T05:19:44.467Z,11.50
2023-01-01T05:22:13.421Z,11.90
2023-01-01T05:24:45.421Z,11.60
2023-01-01T05:27:13.920Z,12.90
2023-01-01T05:29:43.773Z,16.60
2023-01-01T05:34:39.863Z,14.10
2023-01-01T05:37:08.663Z,15.20
2023-01-01T05:39:37.790Z,9.20
2023-01-01T05:42:06.390Z,11.60
2023-01-01T05:44:36.022Z,10.10
2023-01-01T05:47:04.718Z,8.00
2023-01-01T05:49:33.337Z,10.40
2023-01-01T05:52:02.402Z,9.50
2023-01-01T05:54:30.998Z,8.40
2023-01-01T05:56:59.546Z,10.80
2023-01-01T05:59:28.848Z,10.00
2023-01-01T06:01:57.769Z,10.30
2023-01-01T06:04:26.592Z,13.20
2023-01-01T06:06:55.738Z,17.00
2023-01-01T06:09:24.633Z,24.30
2023-01-01T06:11:53.231Z,32.00
2023-01-01T06:14:22.295Z,25.60
2023-01-01T06:16:51.773Z,18.10
2023-01-01T06:19:20.383Z,16.50
2023-01-01T06:21:49.274Z,10.00
2023-01-01T06:24:18.659Z,14.60
2023-01-01T06:26:47.307Z,11.00
2023-01-01T06:29:16.549Z,11.50
2023-01-01T06:31:45.591Z,11.60
2023-01-01T06:34:14.701Z,13.90
2023-01-01T06:36:43.664Z,9.00
2023-01-01T06:39:12.268Z,14.20
2023-01-01T06:41:41.251Z,13.00
2023-01-01T06:44:10.359Z,10.40
2023-01-01T06:46:39.280Z,10.60
2023-01-01T06:49:11.852Z,10.10
2023-01-01T06:51:42.950Z,11.10
2023-01-01T06:54:12.552Z,9.50
2023-01-01T06:56:41.245Z,9.10
2023-01-01T06:59:10.417Z,9.50
2023-01-01T07:01:44.659Z,9.40
2023-01-01T07:04:16.141Z,10.50
2023-01-01T07:06:45.935Z,10.10
2023-01-01T07:09:15.191Z,10.80
2023-01-01T07:11:43.834Z,10.00
2023-01-01T07:14:12.582Z,11.10
2023-01-01T07:16:41.360Z,12.90
2023-01-01T07:19:10.124Z,11.80
2023-01-01T07:21:45.049Z,8.10
2023-01-01T07:24:15.868Z,12.10
2023-01-01T07:26:45.263Z,10.10
2023-01-01T07:29:13.873Z,8.30
2023-01-01T07:31:45.175Z,11.10
2023-01-01T07:34:17.027Z,9.80
2023-01-01T07:36:47.475Z,10.50
2023-01-01T07:41:45.576Z,10.50
2023-01-01T07:44:15.589Z,13.00
2023-01-01T07:46:45.397Z,11.90
2023-01-01T07:49:14.232Z,10.60
2023-01-01T07:51:43.540Z,10.30
2023-01-01T07:54:12.254Z,10.10
2023-01-01T07:56:44.643Z,11.30
2023-01-01T07:59:20.303Z,12.00
2023-01-01T08:01:54.206Z,10.60
2023-01-01T08:04:23.753Z,9.60
2023-01-01T08:06:53.004Z,7.70
2023-01-01T08:09:22.449Z,11.10
2023-01-01T08:11:53.707Z,13.00
2023-01-01T08:14:22.977Z,13.80
2023-01-01T08:16:51.860Z,13.30
2023-01-01T08:19:20.979Z,22.60
2023-01-01T08:21:50.386Z,27.40
2023-01-01T08:24:19.462Z,30.10
2023-01-01T08:26:51.468Z,31.30
2023-01-01T08:29:20.669Z,29.60
2023-01-01T08:31:52.232Z,25.20
2023-01-01T08:34:23.866Z,17.30
2023-01-01T08:36:52.647Z,19.10
2023-01-01T08:39:22.155Z,23.20
2023-01-01T08:41:50.751Z,23.00
2023-01-01T08:44:24.862Z,18.40
2023-01-01T08:46:55.569Z,22.00
2023-01-01T08:49:24.170Z,15.50
2023-01-01T08:54:25.684Z,14.80
2023-01-01T08:56:54.816Z,14.40
2023-01-01T08:59:39.693Z,18.80
2023-01-01T09:02:08.666Z,15.80
2023-01-01T09:04:38.289Z,19.40
2023-01-01T09:07:07.102Z,17.30
2023-01-01T09:09:36.226Z,26.50
2023-01-01T09:12:06.939Z,22.30
2023-01-01T09:14:36.973Z,14.70
2023-01-01T09:17:08.579Z,20.50
2023-01-01T09:19:39.917Z,19.30
2023-01-01T09:22:15.527Z,17.60
2023-01-01T09:24:44.250Z,18.10
2023-01-01T09:27:13.269Z,25.60
2023-01-01T09:29:42.817Z,18.90
2023-01-01T09:32:11.405Z,17.10
2023-01-01T09:34:40.422Z,12.00
2023-01-01T09:37:08.971Z,11.70
2023-01-01T09:39:37.511Z,11.30
2023-01-01T09:42:15.766Z,9.70
2023-01-01T09:44:58.491Z,11.30
2023-01-01T09:47:41.611Z,10.60
2023-01-01T09:50:23.381Z,10.40
2023-01-01T09:52:59.858Z,13.50
2023-01-01T09:55:44.015Z,11.60
2023-01-01T09:58:13.638Z,13.50
2023-01-01T10:00:47.077Z,11.90
2023-01-01T10:03:37.643Z,16.70
2023-01-01T10:09:10.322Z,12.40
2023-01-01T10:11:48.699Z,14.60
2023-01-01T10:14:31.390Z,13.90
2023-01-01T10:17:04.829Z,15.10
2023-01-01T10:19:45.957Z,10.90
2023-01-01T10:22:38.537Z,8.60
2023-01-01T10:25:19.892Z,8.00
2023-01-01T10:27:59.335Z,11.60
2023-01-01T10:32:58.582Z,10.90
2023-01-01T10:35:40.171Z,12.60
2023-01-01T10:38:21.972Z,7.30
2023-01-01T10:40:53.403Z,9.20
2023-01-01T10:43:22.368Z,8.60
2023-01-01T10:45:53.890Z,13.40
2023-01-01T10:48:28.611Z,7.50
2023-01-01T10:51:02.315Z,8.90
2023-01-01T10:53:36.389Z,7.50
2023-01-01T10:56:07.154Z,8.30
2023-01-01T10:58:49.580Z,9.90
2023-01-01T11:01:18.747Z,11.70
2023-01-01T11:04:06.763Z,12.60
2023-01-01T11:06:37.770Z,7.50
2023-01-01T11:09:28.643Z,10.30
2023-01-01T11:12:08.074Z,11.10
2023-01-01T11:14:54.749Z,10.90
2023-01-01T11:17:33.090Z,10.20
2023-01-01T11:20:03.992Z,10.10
2023-01-01T11:22:40.600Z,14.60
2023-01-01T11:25:20.821Z,20.80
2023-01-01T11:27:51.018Z,16.30
2023-01-01T11:30:23.175Z,29.40
2023-01-01T11:32:56.148Z,36.30
2023-01-01T11:35:28.629Z,30.70
2023-01-01T11:37:58.751Z,39.80
2023-01-01T11:40:37.584Z,42.60
2023-01-01T11:43:07.648Z,42.30
2023-01-01T11:45:43.770Z,48.80
2023-01-01T11:48:21.567Z,31.60
2023-01-01T11:50:56.193Z,20.00
2023-01-01T11:53:25.396Z,17.20
2023-01-01T11:56:15.341Z,25.10
2023-01-01T11:59:22.625Z,38.90
2023-01-01T12:01:57.612Z,53.50
2023-01-01T12:04:38.479Z,72.20
2023-01-01T12:07:11.073Z,67.10
2023-01-01T12:10:01.809Z,39.10
2023-01-01T12:12:44.358Z,87.40
2023-01-01T12:15:41.683Z,63.90
2023-01-01T12:18:28.590Z,40.40
2023-01-01T12:21:12.406Z,38.10
2023-01-01T12:23:41.574Z,43.70
2023-01-01T12:26:16.026Z,33.60
2023-01-01T12:29:23.095Z,39.80
2023-01-01T12:32:02.443Z,26.70
2023-01-01T12:34:38.444Z,21.80
2023-01-01T12:37:16.409Z,24.30
2023-01-01T12:40:01.507Z,28.00
2023-01-01T12:42:46.627Z,23.30
2023-01-01T12:45:34.071Z,18.90
2023-01-01T12:48:31.123Z,33.20
2023-01-01T12:51:06.173Z,52.20
2023-01-01T12:53:41.037Z,41.40
2023-01-01T12:56:23.472Z,39.20
2023-01-01T12:59:05.058Z,30.10
2023-01-01T13:01:36.546Z,35.70
2023-01-01T13:04:14.754Z,39.40
2023-01-01T13:06:50.013Z,35.50
2023-01-01T13:09:22.710Z,29.90
2023-01-01T13:11:56.130Z,33.80
2023-01-01T13:14:25.969Z,33.30
2023-01-01T13:16:58.478Z,19.20
2023-01-01T13:19:34.604Z,33.90
2023-01-01T13:22:29.759Z,43.40
2023-01-01T13:25:11.797Z,56.50
2023-01-01T13:28:06.041Z,65.90
2023-01-01T13:30:44.470Z,39.30
2023-01-01T13:33:32.379Z,27.40
2023-01-01T13:36:22.649Z,32.70
2023-01-01T13:38:53.229Z,31.60
2023-01-01T13:41:30.183Z,28.70
2023-01-01T13:44:06.128Z,23.20
2023-01-01T13:46:45.239Z,31.60
2023-01-01T13:49:42.939Z,38.80
2023-01-01T13:52:47.157Z,29.30
2023-01-01T13:55:30.236Z,24.00
2023-01-01T13:58:17.308Z,20.20
2023-01-01T14:01:37.295Z,17.60
2023-01-01T14:04:33.922Z,20.50
2023-01-01T14:07:49.027Z,21.30
2023-01-01T14:10:31.765Z,34.30
2023-01-01T14:13:06.480Z,21.80
2023-01-01T14:15:47.012Z,32.30
2023-01-01T14:18:19.087Z,27.80
2023-01-01T14:20:54.936Z,22.30
2023-01-01T14:23:31.400Z,23.10
2023-01-01T14:26:08.477Z,19.10
2023-01-01T14:28:38.679Z,29.70
2023-01-01T14:31:19.667Z,40.70
2023-01-01T14:33:48.741Z,41.30
2023-01-01T14:36:27.285Z,37.50
2023-01-01T14:39:02.612Z,24.10
2023-01-01T14:41:46.566Z,26.90
2023-01-01T14:44:19.689Z,25.40
2023-01-01T14:46:51.859Z,29.90
2023-01-01T14:49:32.476Z,31.20
2023-01-01T14:52:23.049Z,30.90
2023-01-01T14:55:01.326Z,52.60
2023-01-01T14:57:33.630Z,37.20
2023-01-01T15:00:24.164Z,33.20
2023-01-01T15:02:53.934Z,65.10
2023-01-01T15:05:35.465Z,38.20
2023-01-01T15:08:10.997Z,55.00
2023-01-01T15:10:40.237Z,38.30
2023-01-01T15:13:17.295Z,31.60
2023-01-01T15:15:49.730Z,24.00
2023-01-01T15:18:39.922Z,29.60
2023-01-01T15:21:25.001Z,32.00
2023-01-01T15:24:01.704Z,30.90
2023-01-01T15:26:46.810Z,38.20
2023-01-01T15:29:42.025Z,23.90
2023-01-01T15:32:15.755Z,33.60
2023-01-01T15:34:50.341Z,19.30
2023-01-01T15:37:30.983Z,26.20
2023-01-01T15:40:23.199Z,25.80
2023-01-01T15:42:57.677Z,30.50
2023-01-01T15:45:36.891Z,42.20
2023-01-01T15:48:10.631Z,37.50
2023-01-01T15:50:49.421Z,20.10
2023-01-01T15:53:26.454Z,21.30
2023-01-01T15:56:07.494Z,26.70
2023-01-01T15:58:56.680Z,27.50
2023-01-01T16:01:31.650Z,58.20
2023-01-01T16:04:31.419Z,82.60
2023-01-01T16:07:05.327Z,49.90
2023-01-01T16:09:36.290Z,33.80
2023-01-01T16:12:05.301Z,36.00
2023-01-01T16:14:34.317Z,79.30
2023-01-01T16:17:03.204Z,64.60
2023-01-01T16:19:34.133Z,47.60
2023-01-01T16:22:02.950Z,33.90
2023-01-01T16:24:34.787Z,32.60
2023-01-01T16:27:04.239Z,40.40
2023-01-01T16:29:33.245Z,33.80
2023-01-01T16:32:01.852Z,25.10
2023-01-01T16:34:31.125Z,34.10
2023-01-01T16:36:59.969Z,37.90
2023-01-01T16:39:28.549Z,27.00
2023-01-01T16:41:58.488Z,29.40
2023-01-01T16:44:27.134Z,45.30
2023-01-01T16:46:55.749Z,36.00
2023-01-01T16:49:25.035Z,31.20
2023-01-01T16:51:53.691Z,28.30
2023-01-01T16:54:22.254Z,30.30
2023-01-01T16:56:51.698Z,38.70
2023-01-01T16:59:21.154Z,36.20
2023-01-01T17:01:49.822Z,26.40
2023-01-01T17:04:18.643Z,23.20
2023-01-01T17:06:47.428Z,20.30
2023-01-01T17:09:16.984Z,39.70
2023-01-01T17:11:46.436Z,33.00
2023-01-01T17:14:15.626Z,35.70
2023-01-01T17:16:44.398Z,26.30
2023-01-01T17:19:17.453Z,46.20
2023-01-01T17:21:48.522Z,31.90
2023-01-01T17:24:19.301Z,23.40
2023-01-01T17:26:53.044Z,49.40
2023-01-01T17:29:23.253Z,69.20
2023-01-01T17:34:20.890Z,75.20
2023-01-01T17:36:49.974Z,73.50
2023-01-01T17:39:18.967Z,61.40
2023-01-01T17:41:47.759Z,77.10
2023-01-01T17:44:16.722Z,104.00
2023-01-01T17:46:46.690Z,78.50
2023-01-01T17:49:15.611Z,74.50
2023-01-01T17:51:45.122Z,98.60
2023-01-01T17:54:19.880Z,46.90
2023-01-01T17:56:50.706Z,29.50
2023-01-01T17:59:19.705Z,24.60
2023-01-01T18:01:48.723Z,22.50
2023-01-01T18:04:27.481Z,47.20
2023-01-01T18:07:23.771Z,74.70
2023-01-01T18:10:12.010Z,54.90
2023-01-01T18:13:06.697Z,64.30
2023-01-01T18:15:53.569Z,80.20
2023-01-01T18:18:45.264Z,51.70
2023-01-01T18:21:31.964Z,54.00
2023-01-01T18:24:25.540Z,56.60
2023-01-01T18:27:13.018Z,39.40
2023-01-01T18:29:57.801Z,41.90
2023-01-01T18:32:48.495Z,30.50
2023-01-01T18:35:33.117Z,27.90
2023-01-01T18:38:27.039Z,37.60
2023-01-01T18:41:08.400Z,42.50
2023-01-01T18:43:38.265Z,34.50
2023-01-01T18:46:10.924Z,43.90
2023-01-01T18:48:42.881Z,39.70
2023-01-01T18:51:20.082Z,37.00
2023-01-01T18:53:52.170Z,26.80
2023-01-01T18:56:21.776Z,23.20
2023-01-01T18:58:51.727Z,25.90
2023-01-01T19:01:23.899Z,22.10
2023-01-01T19:03:56.998Z,22.30
2023-01-01T19:06:31.248Z,26.20
2023-01-01T19:09:17.298Z,22.80
2023-01-01T19:11:47.301Z,17.10
2023-01-01T19:14:22.883Z,16.10
2023-01-01T19:16:58.078Z,30.60
2023-01-01T19:19:31.283Z,27.10
2023-01-01T19:22:17.595Z,20.90
2023-01-01T19:24:47.335Z,21.80
2023-01-01T19:27:18.009Z,26.30
2023-01-01T19:29:48.464Z,24.10
2023-01-01T19:32:18.009Z,29.30
2023-01-01T19:34:48.870Z,25.20
2023-01-01T19:37:18.088Z,26.30
2023-01-01T19:39:47.315Z,20.00
2023-01-01T19:42:16.306Z,19.00
2023-01-01T19:44:44.875Z,18.30
2023-01-01T19:47:13.581Z,19.50
2023-01-01T19:49:42.889Z,17.50
2023-01-01T19:52:11.908Z,14.30
2023-01-01T19:54:41.648Z,22.80
2023-01-01T19:57:14.479Z,21.70
2023-01-01T20:02:44.748Z,20.00
2023-01-01T20:05:05.690Z,20.60
2023-01-01T20:07:34.949Z,20.40
2023-01-01T20:10:07.931Z,17.80
2023-01-01T20:12:37.230Z,25.10
2023-01-01T20:15:06.715Z,29.60
2023-01-01T20:17:35.864Z,20.20
2023-01-01T20:20:06.086Z,23.10
2023-01-01T20:22:35.799Z,23.20
2023-01-01T20:25:06.367Z,20.30
2023-01-01T20:27:59.450Z,21.30
2023-01-01T20:30:30.194Z,18.70
2023-01-01T20:32:59.847Z,23.20
2023-01-01T20:35:48.127Z,19.50
2023-01-01T20:38:17.448Z,19.20
2023-01-01T20:40:46.806Z,16.20
2023-01-01T20:43:21.304Z,19.20
2023-01-01T20:45:58.479Z,20.10
2023-01-01T20:48:28.584Z,20.70
2023-01-01T20:50:57.985Z,22.30
2023-01-01T20:53:32.063Z,19.20
2023-01-01T20:56:02.135Z,18.50
2023-01-01T20:58:31.909Z,18.40
2023-01-01T21:01:01.635Z,18.00
2023-01-01T21:06:17.122Z,19.90
2023-01-01T21:08:49.678Z,19.70
2023-01-01T21:11:18.290Z,16.10
2023-01-01T21:13:51.123Z,17.40
2023-01-01T21:16:29.259Z,21.30
2023-01-01T21:18:59.944Z,19.90
2023-01-01T21:21:53.840Z,19.90
2023-01-01T21:24:37.852Z,17.40
2023-01-01T21:27:25.475Z,21.60
2023-01-01T21:29:58.311Z,17.20
2023-01-01T21:32:43.620Z,20.60
2023-01-01T21:35:33.247Z,17.30
2023-01-01T21:38:21.987Z,18.80
2023-01-01T21:41:01.346Z,19.50
2023-01-01T21:43:39.496Z,21.40
2023-01-01T21:46:09.013Z,16.90
2023-01-01T21:48:56.879Z,16.80
2023-01-01T21:51:40.664Z,16.90
2023-01-01T21:54:09.940Z,23.90
2023-01-01T21:56:47.606Z,26.60
2023-01-01T21:59:35.148Z,21.70
2023-01-01T22:02:07.447Z,23.40
2023-01-01T22:04:39.682Z,18.70
2023-01-01T22:10:35.094Z,27.90
2023-01-01T22:13:15.005Z,21.20
2023-01-01T22:18:23.877Z,19.40
2023-01-01T22:20:55.075Z,18.40
2023-01-01T22:25:54.148Z,17.30
2023-01-01T22:28:32.638Z,15.30
2023-01-01T22:31:02.453Z,19.30
2023-01-01T22:33:42.270Z,17.20
2023-01-01T22:36:26.650Z,19.70
2023-01-01T22:39:01.876Z,17.50
2023-01-01T22:41:31.277Z,20.30
2023-01-01T22:44:04.310Z,20.30
2023-01-01T22:46:39.770Z,18.50
2023-01-01T22:49:23.396Z,16.00
2023-01-01T22:51:55.292Z,15.80
2023-01-01T22:54:27.438Z,18.30
2023-01-01T22:56:57.381Z,20.40
2023-01-01T23:01:56.041Z,16.40
2023-01-01T23:04:25.902Z,21.50
2023-01-01T23:06:55.811Z,20.60
2023-01-01T23:09:25.451Z,17.40
2023-01-01T23:11:55.568Z,20.30
2023-01-01T23:14:44.060Z,20.90
2023-01-01T23:17:13.766Z,15.40
2023-01-01T23:22:11.423Z,17.40
2023-01-01T23:24:40.596Z,17.50
2023-01-01T23:27:11.384Z,19.00
2023-01-01T23:29:40.205Z,17.10
2023-01-01T23:32:08.767Z,16.70
2023-01-01T23:34:38.275Z,22.10
2023-01-01T23:37:07.364Z,21.20
2023-01-01T23:39:36.308Z,15.80
2023-01-01T23:42:06.054Z,19.10
2023-01-01T23:44:34.730Z,11.80
2023-01-01T23:47:04.148Z,14.60
2023-01-01T23:49:33.630Z,17.80
2023-01-01T23:52:04.308Z,17.60
2023-01-01T23:57:02.144Z,15.40
2023-01-01T23:59:30.823Z,21.80
